Time;durP1;ratioP1;P1;durP2;ratioP2;P2;SDS_P1;SDS_P2;PMS_P1;PMS_P2;Temp;Humidity;BMP_temperature;BMP_pressure;BME280_temperature;BME280_humidity;BME280_pressure;Samples;Min_cycle;Max_cycle;Signal;HPM_P1;HPM_P2
2023/11/15 00:00:22;;;;;;;10.52;3.80;;;;;;;;;;5023880;28;20053;-77
2023/11/15 00:02:53;;;;;;;7.68;3.40;;;;;;;;;;5023975;28;20053;-78
2023/11/15 00:05:23;;;;;;;7.20;3.42;;;;;;;;;;5024232;28;20049;-74
2023/11/15 00:07:55;;;;;;;9.15;3.28;;;;;;;;;;5024174;28;20045;-75
2023/11/15 00:10:26;;;;;;;8.98;3.60;;;;;;;;;;5021953;28;20519;-76
2023/11/15 00:12:56;;;;;;;6.60;3.58;;;;;;;;;;5021867;28;20053;-76
2023/11/15 00:15:28;;;;;;;10.50;3.88;;;;;;;;;;5023472;28;20550;-77
2023/11/15 00:18:04;;;;;;;9.63;4.28;;;;;;;;;;5024353;28;20415;-78
2023/11/15 00:20:35;;;;;;;8.85;3.35;;;;;;;;;;5024241;28;20045;-77
2023/11/15 00:23:05;;;;;;;9.23;3.67;;;;;;;;;;5024475;28;20041;-76
2023/11/15 00:25:35;;;;;;;6.20;3.58;;;;;;;;;;5024129;28;20412;-75
2023/11/15 00:28:06;;;;;;;5.28;3.33;;;;;;;;;;5023030;28;20049;-74
2023/11/15 00:30:39;;;;;;;7.05;3.50;;;;;;;;;;5022317;28;20049;-74
2023/11/15 00:33:11;;;;;;;6.97;3.25;;;;;;;;;;5024652;28;20045;-74
2023/11/15 00:35:41;;;;;;;5.13;3.53;;;;;;;;;;5023447;28;20056;-75
2023/11/15 00:38:12;;;;;;;4.22;3.47;;;;;;;;;;5023845;28;20053;-75
2023/11/15 00:40:44;;;;;;;9.63;4.20;;;;;;;;;;5022516;28;20062;-78
2023/11/15 00:43:15;;;;;;;5.78;4.05;;;;;;;;;;5023839;28;20056;-78
2023/11/15 00:45:45;;;;;;;12.93;4.13;;;;;;;;;;5023742;28;20053;-78
2023/11/15 00:48:17;;;;;;;6.75;4.40;;;;;;;;;;5023088;28;20052;-74
2023/11/15 00:50:50;;;;;;;10.55;4.57;;;;;;;;;;5023420;28;20508;-74
2023/11/15 00:53:20;;;;;;;9.52;4.78;;;;;;;;;;5023841;28;20515;-75
2023/11/15 00:55:50;;;;;;;10.20;4.32;;;;;;;;;;5023402;28;20519;-74
2023/11/15 00:58:20;;;;;;;8.48;4.30;;;;;;;;;;5023470;28;20037;-75
2023/11/15 01:00:55;;;;;;;9.90;5.00;;;;;;;;;;5023281;28;20431;-76
2023/11/15 01:03:29;;;;;;;8.52;4.65;;;;;;;;;;5023004;28;20053;-77
2023/11/15 01:06:01;;;;;;;7.60;3.85;;;;;;;;;;5023124;28;20531;-77
2023/11/15 01:08:31;;;;;;;7.38;3.70;;;;;;;;;;5024047;28;20091;-75
2023/11/15 01:11:02;;;;;;;12.10;4.78;;;;;;;;;;5024173;28;20056;-74
2023/11/15 01:13:33;;;;;;;7.20;4.13;;;;;;;;;;5022220;28;20516;-74
2023/11/15 01:16:05;;;;;;;8.02;4.60;;;;;;;;;;5022660;28;20516;-75
2023/11/15 01:18:36;;;;;;;6.93;4.25;;;;;;;;;;5021293;28;20053;-76
2023/11/15 01:21:09;;;;;;;5.50;3.58;;;;;;;;;;5021734;28;20049;-75
2023/11/15 01:23:40;;;;;;;6.40;4.18;;;;;;;;;;5022906;28;20508;-74
2023/11/15 01:26:11;;;;;;;8.38;4.68;;;;;;;;;;5022647;28;20042;-73
2023/11/15 01:28:42;;;;;;;9.32;4.07;;;;;;;;;;5022774;28;20049;-77
2023/11/15 01:31:12;;;;;;;9.50;3.80;;;;;;;;;;5023118;28;20048;-75
2023/11/15 01:33:44;;;;;;;8.07;4.28;;;;;;;;;;5021272;28;20061;-76
2023/11/15 01:36:15;;;;;;;10.50;4.50;;;;;;;;;;5022705;28;20068;-77
2023/11/15 01:38:45;;;;;;;13.35;4.70;;;;;;;;;;5019576;28;20048;-77
2023/11/15 01:41:18;;;;;;;8.68;4.45;;;;;;;;;;5021723;28;20061;-77
2023/11/15 01:43:48;;;;;;;15.35;4.63;;;;;;;;;;5022298;28;20050;-76
2023/11/15 01:46:20;;;;;;;8.68;5.15;;;;;;;;;;5020355;28;20045;-75
2023/11/15 01:48:52;;;;;;;19.52;4.75;;;;;;;;;;5021336;28;20058;-73
2023/11/15 01:51:21;;;;;;;10.88;4.40;;;;;;;;;;5019946;28;20053;-76
2023/11/15 01:53:52;;;;;;;9.65;4.65;;;;;;;;;;5022592;28;20064;-76
2023/11/15 01:56:22;;;;;;;8.20;4.85;;;;;;;;;;5021926;28;20526;-74
2023/11/15 01:58:54;;;;;;;11.88;5.00;;;;;;;;;;5020568;28;20053;-74
2023/11/15 02:01:24;;;;;;;14.60;4.97;;;;;;;;;;5020782;28;20053;-76
2023/11/15 02:03:55;;;;;;;9.30;5.10;;;;;;;;;;5020180;28;20214;-74
2023/11/15 02:06:32;;;;;;;14.98;5.20;;;;;;;;;;5021682;28;20532;-78
2023/11/15 02:09:05;;;;;;;11.45;5.00;;;;;;;;;;5019890;28;20054;-76
2023/11/15 02:11:35;;;;;;;12.32;6.00;;;;;;;;;;5022697;28;20053;-74
2023/11/15 02:14:05;;;;;;;11.15;4.97;;;;;;;;;;5020350;28;20061;-77
2023/11/15 02:16:36;;;;;;;12.98;5.47;;;;;;;;;;5022487;28;20112;-78
2023/11/15 02:19:08;;;;;;;14.20;5.07;;;;;;;;;;5022710;28;20057;-77
2023/11/15 02:21:39;;;;;;;21.70;5.40;;;;;;;;;;5026762;28;20049;-74
2023/11/15 02:24:10;;;;;;;10.30;4.82;;;;;;;;;;5024837;28;20520;-75
2023/11/15 02:26:40;;;;;;;7.95;5.03;;;;;;;;;;5025870;28;20426;-75
2023/11/15 02:29:11;;;;;;;9.65;4.45;;;;;;;;;;5024667;28;20523;-75
2023/11/15 02:31:42;;;;;;;12.65;4.30;;;;;;;;;;5025924;28;20049;-75
2023/11/15 02:34:12;;;;;;;8.95;4.28;;;;;;;;;;5024441;28;20084;-77
2023/11/15 02:36:42;;;;;;;11.43;4.47;;;;;;;;;;5024635;28;20525;-79
2023/11/15 02:39:14;;;;;;;10.13;4.07;;;;;;;;;;5025169;28;20053;-78
2023/11/15 02:41:46;;;;;;;12.48;4.28;;;;;;;;;;5026455;28;20098;-78
2023/11/15 02:44:17;;;;;;;10.52;4.10;;;;;;;;;;5024891;28;20065;-76
2023/11/15 02:46:47;;;;;;;10.40;4.57;;;;;;;;;;5026375;28;20048;-75
2023/11/15 02:49:17;;;;;;;11.98;4.18;;;;;;;;;;5024342;28;20057;-75
2023/11/15 02:51:49;;;;;;;11.82;4.57;;;;;;;;;;5025790;28;20057;-76
2023/11/15 02:54:19;;;;;;;12.80;4.70;;;;;;;;;;5024361;28;20057;-76
2023/11/15 02:56:49;;;;;;;14.55;4.72;;;;;;;;;;5026000;28;20047;-75
2023/11/15 02:59:20;;;;;;;7.30;3.53;;;;;;;;;;5025817;28;20064;-75
2023/11/15 03:01:51;;;;;;;9.88;4.05;;;;;;;;;;5026265;28;20056;-76
2023/11/15 03:04:22;;;;;;;8.13;4.35;;;;;;;;;;5025581;28;20046;-77
2023/11/15 03:06:52;;;;;;;11.98;4.20;;;;;;;;;;5025831;28;20844;-76
2023/11/15 03:09:22;;;;;;;10.63;4.80;;;;;;;;;;5024479;28;20068;-76
2023/11/15 03:11:53;;;;;;;8.93;4.13;;;;;;;;;;5025371;28;20539;-76
2023/11/15 03:14:25;;;;;;;11.95;4.07;;;;;;;;;;5024923;28;20132;-75
2023/11/15 03:17:07;;;;;;;14.85;4.80;;;;;;;;;;5024943;28;20427;-77
2023/11/15 03:19:37;;;;;;;12.18;4.30;;;;;;;;;;5025177;28;20050;-77
2023/11/15 03:22:07;;;;;;;10.82;4.38;;;;;;;;;;5025260;28;20056;-76
2023/11/15 03:24:38;;;;;;;10.00;4.53;;;;;;;;;;5024846;28;20056;-78
2023/11/15 03:27:09;;;;;;;15.32;4.55;;;;;;;;;;5023318;28;20053;-74
2023/11/15 03:29:39;;;;;;;17.38;4.75;;;;;;;;;;5023846;28;20053;-78
2023/11/15 03:32:10;;;;;;;12.23;4.95;;;;;;;;;;5025223;28;20048;-77
2023/11/15 03:34:44;;;;;;;8.80;4.88;;;;;;;;;;5025178;28;20054;-75
2023/11/15 03:37:15;;;;;;;10.73;5.20;;;;;;;;;;5024837;28;20065;-78
2023/11/15 03:39:48;;;;;;;13.38;5.13;;;;;;;;;;5023255;28;20064;-78
2023/11/15 03:42:18;;;;;;;7.93;4.68;;;;;;;;;;5024839;28;20049;-74
2023/11/15 03:44:48;;;;;;;11.48;4.65;;;;;;;;;;5024590;28;20056;-78
2023/11/15 03:47:19;;;;;;;10.88;5.45;;;;;;;;;;5024961;28;20515;-78
2023/11/15 03:49:50;;;;;;;10.90;4.97;;;;;;;;;;5025428;28;20491;-77
2023/11/15 03:52:22;;;;;;;10.85;5.05;;;;;;;;;;5024559;28;20053;-76
2023/11/15 03:54:53;;;;;;;14.18;4.80;;;;;;;;;;5024716;28;20054;-76
2023/11/15 03:57:24;;;;;;;13.05;5.28;;;;;;;;;;5024390;28;20061;-76
2023/11/15 03:59:58;;;;;;;10.52;5.70;;;;;;;;;;5023486;28;20418;-74
2023/11/15 04:02:29;;;;;;;12.32;5.30;;;;;;;;;;5023905;28;20050;-74
2023/11/15 04:05:01;;;;;;;12.40;5.13;;;;;;;;;;5023345;28;20527;-76
2023/11/15 04:07:31;;;;;;;14.55;5.55;;;;;;;;;;5024441;28;20504;-76
2023/11/15 04:10:02;;;;;;;19.63;6.05;;;;;;;;;;5022614;28;20057;-76
2023/11/15 04:12:33;;;;;;;13.02;5.88;;;;;;;;;;5024229;28;20050;-75
2023/11/15 04:15:03;;;;;;;14.45;5.85;;;;;;;;;;5023827;28;20053;-77
2023/11/15 04:17:34;;;;;;;15.63;5.70;;;;;;;;;;5024859;28;20057;-76
2023/11/15 04:20:10;;;;;;;18.08;6.10;;;;;;;;;;5024732;28;20051;-77
2023/11/15 04:22:41;;;;;;;12.88;6.20;;;;;;;;;;5024063;28;20045;-76
2023/11/15 04:25:12;;;;;;;13.82;5.85;;;;;;;;;;5024228;28;20057;-75
2023/11/15 04:27:41;;;;;;;17.65;5.68;;;;;;;;;;5023485;28;20061;-74
2023/11/15 04:30:13;;;;;;;11.18;5.72;;;;;;;;;;5023982;28;20046;-76
2023/11/15 04:32:45;;;;;;;12.90;5.75;;;;;;;;;;5024297;28;20113;-75
2023/11/15 04:35:15;;;;;;;12.50;6.22;;;;;;;;;;5024435;28;20054;-76
2023/11/15 04:37:45;;;;;;;16.58;5.22;;;;;;;;;;5024065;28;20053;-76
2023/11/15 04:40:15;;;;;;;11.32;5.55;;;;;;;;;;5023941;28;20045;-77
2023/11/15 04:42:48;;;;;;;10.45;4.85;;;;;;;;;;5023108;28;20053;-76
2023/11/15 04:45:20;;;;;;;17.35;5.68;;;;;;;;;;5023168;28;20064;-78
2023/11/15 04:47:50;;;;;;;10.60;5.07;;;;;;;;;;5023670;28;20049;-74
2023/11/15 04:50:22;;;;;;;10.50;5.05;;;;;;;;;;5024170;28;20428;-77
2023/11/15 04:52:53;;;;;;;12.68;4.72;;;;;;;;;;5023793;28;20057;-76
2023/11/15 04:55:27;;;;;;;15.35;5.35;;;;;;;;;;5023823;28;20562;-74
2023/11/15 04:57:57;;;;;;;11.68;4.80;;;;;;;;;;5022493;28;20061;-75
2023/11/15 05:00:27;;;;;;;10.75;5.38;;;;;;;;;;5024264;28;20064;-77
2023/11/15 05:02:57;;;;;;;11.90;5.55;;;;;;;;;;5023167;28;20049;-76
2023/11/15 05:05:29;;;;;;;15.60;5.05;;;;;;;;;;5022742;28;20060;-75
2023/11/15 05:07:59;;;;;;;12.48;5.53;;;;;;;;;;5023360;28;20534;-75
2023/11/15 05:10:29;;;;;;;13.02;5.80;;;;;;;;;;5023281;28;20452;-77
2023/11/15 05:13:00;;;;;;;25.27;5.95;;;;;;;;;;5023378;28;20041;-77
2023/11/15 05:15:33;;;;;;;16.15;6.35;;;;;;;;;;5023292;28;20527;-76
2023/11/15 05:18:04;;;;;;;12.60;5.47;;;;;;;;;;5023194;28;20060;-76
2023/11/15 05:20:35;;;;;;;11.32;5.43;;;;;;;;;;5022200;28;20041;-74
2023/11/15 05:23:06;;;;;;;13.30;5.47;;;;;;;;;;5023282;28;20527;-75
2023/11/15 05:25:37;;;;;;;19.83;6.15;;;;;;;;;;5022799;28;20420;-76
2023/11/15 05:28:07;;;;;;;17.58;5.75;;;;;;;;;;5022898;28;20053;-76
2023/11/15 05:30:39;;;;;;;13.82;5.45;;;;;;;;;;5023030;28;20041;-78
2023/11/15 05:33:11;;;;;;;11.13;5.00;;;;;;;;;;5022808;28;20412;-75
2023/11/15 05:35:42;;;;;;;14.57;5.28;;;;;;;;;;5022982;28;20041;-74
2023/11/15 05:38:12;;;;;;;11.70;5.28;;;;;;;;;;5023392;28;20045;-76
2023/11/15 05:40:43;;;;;;;12.38;4.75;;;;;;;;;;5022824;28;20060;-76
2023/11/15 05:43:13;;;;;;;12.57;5.85;;;;;;;;;;5021858;28;20057;-76
2023/11/15 05:45:44;;;;;;;11.27;5.30;;;;;;;;;;5023682;28;20060;-74
2023/11/15 05:48:15;;;;;;;12.02;5.85;;;;;;;;;;5022611;28;20060;-76
2023/11/15 05:50:45;;;;;;;12.80;5.20;;;;;;;;;;5022577;28;20504;-74
2023/11/15 05:53:16;;;;;;;14.50;6.45;;;;;;;;;;5021195;28;20064;-76
2023/11/15 05:55:47;;;;;;;14.70;6.18;;;;;;;;;;5022506;28;20053;-75
2023/11/15 05:58:17;;;;;;;14.65;6.07;;;;;;;;;;5022377;28;20049;-76
2023/11/15 06:00:48;;;;;;;14.48;5.88;;;;;;;;;;5022831;28;20057;-75
2023/11/15 06:03:18;;;;;;;13.10;6.10;;;;;;;;;;5022109;28;20538;-76
2023/11/15 06:05:50;;;;;;;11.68;6.25;;;;;;;;;;5022919;28;20409;-75
2023/11/15 06:08:20;;;;;;;11.95;5.75;;;;;;;;;;5022045;28;20412;-77
2023/11/15 06:10:50;;;;;;;9.25;5.10;;;;;;;;;;5021953;28;20048;-76
2023/11/15 06:13:20;;;;;;;14.88;5.70;;;;;;;;;;5022299;28;20046;-75
2023/11/15 06:15:51;;;;;;;9.30;4.50;;;;;;;;;;5022002;28;20057;-75
2023/11/15 06:18:22;;;;;;;14.65;5.25;;;;;;;;;;5020857;28;20583;-77
2023/11/15 06:20:53;;;;;;;10.38;5.03;;;;;;;;;;5022807;28;20057;-77
2023/11/15 06:23:23;;;;;;;10.23;5.15;;;;;;;;;;5022255;28;20053;-77
2023/11/15 06:25:52;;;;;;;8.82;4.68;;;;;;;;;;5021656;28;20065;-76
2023/11/15 06:28:23;;;;;;;12.75;4.95;;;;;;;;;;5021963;28;20053;-74
2023/11/15 06:30:54;;;;;;;13.02;4.82;;;;;;;;;;5020140;28;20136;-78
2023/11/15 06:33:25;;;;;;;18.80;5.40;;;;;;;;;;5022075;28;20049;-78
2023/11/15 06:35:56;;;;;;;11.30;5.03;;;;;;;;;;5021952;28;20630;-76
2023/11/15 06:38:26;;;;;;;10.88;5.38;;;;;;;;;;5022245;28;20794;-77
2023/11/15 06:41:07;;;;;;;13.20;5.55;;;;;;;;;;5021999;28;20056;-76
2023/11/15 06:43:39;;;;;;;13.45;4.93;;;;;;;;;;5022412;28;20045;-75
2023/11/15 06:46:15;;;;;;;17.77;6.10;;;;;;;;;;5022017;28;20058;-76
2023/11/15 06:48:46;;;;;;;10.55;5.35;;;;;;;;;;5021912;28;20048;-77
2023/11/15 06:51:18;;;;;;;12.07;5.35;;;;;;;;;;5021776;28;20054;-76
2023/11/15 06:53:53;;;;;;;17.25;6.00;;;;;;;;;;5021954;28;20049;-75
2023/11/15 06:56:23;;;;;;;13.15;5.50;;;;;;;;;;5022545;28;20049;-74
2023/11/15 06:58:52;;;;;;;11.98;5.85;;;;;;;;;;5022003;28;20622;-76
2023/11/15 07:01:23;;;;;;;11.52;5.25;;;;;;;;;;5020672;28;20056;-77
2023/11/15 07:03:56;;;;;;;12.48;5.95;;;;;;;;;;5021988;28;20516;-76
2023/11/15 07:06:27;;;;;;;16.38;5.68;;;;;;;;;;5025989;28;20052;-74
2023/11/15 07:08:56;;;;;;;15.98;5.80;;;;;;;;;;5025429;28;20058;-74
2023/11/15 07:11:27;;;;;;;12.82;5.15;;;;;;;;;;5024148;28;20049;-74
2023/11/15 07:13:58;;;;;;;17.10;6.30;;;;;;;;;;5025072;28;20053;-76
2023/11/15 07:16:30;;;;;;;10.57;4.95;;;;;;;;;;5024874;28;20054;-76
2023/11/15 07:19:00;;;;;;;12.85;5.15;;;;;;;;;;5025567;28;20423;-76
2023/11/15 07:21:30;;;;;;;10.65;5.88;;;;;;;;;;5025169;28;21161;-75
2023/11/15 07:24:02;;;;;;;15.35;4.53;;;;;;;;;;5024770;28;20045;-76
2023/11/15 07:26:35;;;;;;;14.20;6.13;;;;;;;;;;5025289;28;20419;-77
2023/11/15 07:29:07;;;;;;;17.20;5.20;;;;;;;;;;5025080;28;20054;-76
2023/11/15 07:31:40;;;;;;;12.75;5.47;;;;;;;;;;5024850;28;20046;-77
2023/11/15 07:34:11;;;;;;;11.82;5.35;;;;;;;;;;5025056;28;20053;-77
2023/11/15 07:36:43;;;;;;;11.15;5.00;;;;;;;;;;5025094;28;20085;-74
2023/11/15 07:39:15;;;;;;;13.90;4.88;;;;;;;;;;5024671;28;20045;-77
2023/11/15 07:41:45;;;;;;;12.50;5.18;;;;;;;;;;5024884;28;20065;-76
2023/11/15 07:44:15;;;;;;;11.18;5.10;;;;;;;;;;5024943;28;20508;-75
2023/11/15 07:46:51;;;;;;;13.93;5.40;;;;;;;;;;5024877;28;20049;-76
2023/11/15 07:49:24;;;;;;;11.20;4.63;;;;;;;;;;5024889;28;20320;-76
2023/11/15 07:51:54;;;;;;;12.90;5.50;;;;;;;;;;5024435;28;20045;-75
2023/11/15 07:54:24;;;;;;;15.07;5.22;;;;;;;;;;5024912;28;20045;-75
2023/11/15 07:56:55;;;;;;;15.52;5.15;;;;;;;;;;5024716;28;20061;-75
2023/11/15 07:59:27;;;;;;;13.20;5.13;;;;;;;;;;5023584;28;20042;-76
2023/11/15 08:01:58;;;;;;;15.73;4.93;;;;;;;;;;5025717;28;20045;-82
2023/11/15 08:04:29;;;;;;;9.18;4.68;;;;;;;;;;5024266;28;20548;-75
2023/11/15 08:06:59;;;;;;;14.05;5.50;;;;;;;;;;5024383;28;20049;-74
2023/11/15 08:09:32;;;;;;;16.40;5.65;;;;;;;;;;5024317;28;20060;-77
2023/11/15 08:12:03;;;;;;;11.77;4.78;;;;;;;;;;5024985;28;20507;-75
2023/11/15 08:14:34;;;;;;;12.23;4.78;;;;;;;;;;5024357;28;20060;-74
2023/11/15 08:17:04;;;;;;;10.60;5.20;;;;;;;;;;5023623;28;20049;-76
2023/11/15 08:19:37;;;;;;;10.63;4.72;;;;;;;;;;5024962;28;20045;-74
2023/11/15 08:22:07;;;;;;;12.48;4.47;;;;;;;;;;5023795;28;20057;-76
2023/11/15 08:24:39;;;;;;;10.38;4.55;;;;;;;;;;5024041;28;20056;-74
2023/11/15 08:27:09;;;;;;;15.80;4.60;;;;;;;;;;5024052;28;20523;-76
2023/11/15 08:29:40;;;;;;;11.82;5.25;;;;;;;;;;5023765;28;20464;-75
2023/11/15 08:32:12;;;;;;;10.95;4.80;;;;;;;;;;5023755;28;20073;-76
2023/11/15 08:34:44;;;;;;;11.05;5.38;;;;;;;;;;5023988;28;20432;-75
2023/11/15 08:37:14;;;;;;;11.80;4.75;;;;;;;;;;5024220;28;20064;-75
2023/11/15 08:39:46;;;;;;;15.07;4.75;;;;;;;;;;5023768;28;20060;-77
2023/11/15 08:42:18;;;;;;;12.45;5.32;;;;;;;;;;5024062;28;20417;-74
2023/11/15 08:44:48;;;;;;;10.82;4.50;;;;;;;;;;5023679;28;20049;-75
2023/11/15 08:47:18;;;;;;;13.93;4.85;;;;;;;;;;5023113;28;20056;-77
2023/11/15 08:49:53;;;;;;;11.90;4.57;;;;;;;;;;5023298;28;20524;-74
2023/11/15 08:52:24;;;;;;;12.50;4.32;;;;;;;;;;5023526;28;20049;-76
2023/11/15 08:54:56;;;;;;;12.80;5.15;;;;;;;;;;5024157;28;20053;-75
2023/11/15 08:57:26;;;;;;;10.55;4.75;;;;;;;;;;5023786;28;20060;-75
2023/11/15 08:59:57;;;;;;;10.38;5.50;;;;;;;;;;5023713;28;20050;-77
2023/11/15 09:02:30;;;;;;;12.38;5.50;;;;;;;;;;5023699;28;20053;-76
2023/11/15 09:05:09;;;;;;;11.13;5.15;;;;;;;;;;5023084;28;20045;-77
2023/11/15 09:07:41;;;;;;;13.23;5.15;;;;;;;;;;5023317;28;20084;-76
2023/11/15 09:10:14;;;;;;;12.70;5.63;;;;;;;;;;5023505;28;20416;-76
2023/11/15 09:12:46;;;;;;;11.75;5.28;;;;;;;;;;5023503;28;20532;-77
2023/11/15 09:15:16;;;;;;;11.52;5.38;;;;;;;;;;5023453;28;20833;-76
2023/11/15 09:17:46;;;;;;;16.80;5.88;;;;;;;;;;5022789;28;20057;-74
2023/11/15 09:20:37;;;;;;;11.52;4.50;;;;;;;;;;5023326;28;20038;-77
2023/11/15 09:23:08;;;;;;;19.17;5.85;;;;;;;;;;5023145;28;20045;-76
2023/11/15 09:25:55;;;;;;;12.23;5.30;;;;;;;;;;5022734;28;20056;-76
2023/11/15 09:28:25;;;;;;;16.25;5.60;;;;;;;;;;5022503;28;20041;-76
2023/11/15 09:30:56;;;;;;;14.90;5.18;;;;;;;;;;5023607;28;20049;-76
2023/11/15 09:33:29;;;;;;;14.25;5.28;;;;;;;;;;5022958;28;20599;-75
2023/11/15 09:36:01;;;;;;;14.18;5.05;;;;;;;;;;5022535;28;20061;-77
2023/11/15 09:38:32;;;;;;;11.68;5.07;;;;;;;;;;5022603;28;20051;-77
2023/11/15 09:41:07;;;;;;;11.77;5.50;;;;;;;;;;5022503;28;20717;-76
2023/11/15 09:43:44;;;;;;;16.20;6.30;;;;;;;;;;5022944;28;20056;-75
2023/11/15 09:46:15;;;;;;;10.98;5.00;;;;;;;;;;5023092;28;20159;-76
2023/11/15 09:48:45;;;;;;;11.68;5.20;;;;;;;;;;5022109;28;20053;-75
2023/11/15 09:51:25;;;;;;;9.02;4.38;;;;;;;;;;5021877;28;20050;-77
2023/11/15 09:53:58;;;;;;;16.20;6.30;;;;;;;;;;5023320;28;20052;-76
2023/11/15 09:56:49;;;;;;;11.10;6.03;;;;;;;;;;5022317;28;20404;-75
2023/11/15 09:59:20;;;;;;;13.75;6.13;;;;;;;;;;5021990;28;20394;-76
2023/11/15 10:01:50;;;;;;;16.38;5.40;;;;;;;;;;5022630;28;20049;-77
2023/11/15 10:04:29;;;;;;;12.57;5.53;;;;;;;;;;5022286;28;20056;-74
2023/11/15 10:07:01;;;;;;;13.60;5.43;;;;;;;;;;5022502;28;20041;-75
2023/11/15 10:09:36;;;;;;;14.50;6.10;;;;;;;;;;5022441;28;20053;-78
2023/11/15 10:12:07;;;;;;;10.13;5.85;;;;;;;;;;5020517;28;20666;-74
2023/11/15 10:14:59;;;;;;;10.52;4.90;;;;;;;;;;5022407;28;20049;-76
2023/11/15 10:17:45;;;;;;;11.65;5.43;;;;;;;;;;5022558;28;20512;-75
2023/11/15 10:20:22;;;;;;;21.27;6.05;;;;;;;;;;5022820;28;20072;-75
2023/11/15 10:22:57;;;;;;;14.13;5.90;;;;;;;;;;5021811;28;20054;-76
2023/11/15 10:25:28;;;;;;;16.33;5.55;;;;;;;;;;5022215;28;20045;-77
2023/11/15 10:28:09;;;;;;;14.43;5.40;;;;;;;;;;5021825;28;20382;-76
2023/11/15 10:30:41;;;;;;;15.35;6.03;;;;;;;;;;5022693;28;20053;-76
2023/11/15 10:33:13;;;;;;;16.13;6.18;;;;;;;;;;5022342;28;20037;-78
2023/11/15 10:35:45;;;;;;;12.50;5.90;;;;;;;;;;5020706;28;20068;-76
2023/11/15 10:38:20;;;;;;;12.75;5.82;;;;;;;;;;5022290;28;20489;-77
2023/11/15 10:40:53;;;;;;;15.80;5.50;;;;;;;;;;5025135;28;20048;-76
2023/11/15 10:43:23;;;;;;;24.83;6.68;;;;;;;;;;5026040;28;20064;-76
2023/11/15 10:45:57;;;;;;;13.63;6.05;;;;;;;;;;5025638;28;20042;-75
2023/11/15 10:48:34;;;;;;;11.38;5.35;;;;;;;;;;5026080;28;20068;-75
2023/11/15 10:51:13;;;;;;;11.52;5.70;;;;;;;;;;5026002;28;20064;-77
2023/11/15 10:53:44;;;;;;;13.85;5.82;;;;;;;;;;5026312;28;20080;-76
2023/11/15 10:56:19;;;;;;;17.75;5.82;;;;;;;;;;5025894;28;20053;-75
2023/11/15 10:58:52;;;;;;;19.38;5.90;;;;;;;;;;5025347;28;20064;-79
2023/11/15 11:01:23;;;;;;;20.42;8.73;;;;;;;;;;5025199;28;20534;-77
2023/11/15 11:03:56;;;;;;;14.13;6.18;;;;;;;;;;5025929;28;20049;-76
2023/11/15 11:06:37;;;;;;;14.77;6.05;;;;;;;;;;5025223;28;20049;-81
2023/11/15 11:09:46;;;;;;;11.10;5.35;;;;;;;;;;5024563;28;20045;-74
2023/11/15 11:12:23;;;;;;;17.90;5.65;;;;;;;;;;5025498;28;20037;-75
2023/11/15 11:15:19;;;;;;;23.70;6.10;;;;;;;;;;5025583;28;20041;-77
2023/11/15 11:18:06;;;;;;;14.18;6.13;;;;;;;;;;5025715;28;20488;-75
2023/11/15 11:20:40;;;;;;;12.30;5.90;;;;;;;;;;5026155;28;20400;-76
2023/11/15 11:23:19;;;;;;;15.23;6.10;;;;;;;;;;5025644;28;20041;-76
2023/11/15 11:25:52;;;;;;;15.38;5.30;;;;;;;;;;5025409;28;20049;-75
2023/11/15 11:28:24;;;;;;;12.27;5.47;;;;;;;;;;5024482;28;20049;-77
2023/11/15 11:31:19;;;;;;;24.80;6.45;;;;;;;;;;5024931;28;20046;-78
2023/11/15 11:34:18;;;;;;;17.02;5.97;;;;;;;;;;5025428;28;20072;-77
2023/11/15 11:36:53;;;;;;;12.02;5.50;;;;;;;;;;5023592;28;20425;-75
2023/11/15 11:39:46;;;;;;;16.67;6.68;;;;;;;;;;5024899;28;20057;-75
2023/11/15 11:42:27;;;;;;;12.23;5.70;;;;;;;;;;5025251;28;20033;-78
2023/11/15 11:44:58;;;;;;;12.68;5.97;;;;;;;;;;5025314;28;20048;-75
2023/11/15 11:47:28;;;;;;;13.27;5.68;;;;;;;;;;5025364;28;20060;-76
2023/11/15 11:50:00;;;;;;;14.20;5.93;;;;;;;;;;5025527;28;20045;-77
2023/11/15 11:52:31;;;;;;;10.15;5.32;;;;;;;;;;5025168;28;20516;-77
2023/11/15 11:55:05;;;;;;;12.07;5.00;;;;;;;;;;5024783;28;20053;-77
2023/11/15 11:57:38;;;;;;;12.23;5.35;;;;;;;;;;5026903;28;20065;-75
2023/11/15 12:00:20;;;;;;;11.98;5.28;;;;;;;;;;5028135;28;20052;-79
2023/11/15 12:03:02;;;;;;;15.60;6.63;;;;;;;;;;5026151;28;20057;-77
2023/11/15 12:05:37;;;;;;;12.65;5.22;;;;;;;;;;5026371;28;20057;-77
2023/11/15 12:08:10;;;;;;;12.07;5.90;;;;;;;;;;5044310;28;20551;-75
2023/11/15 12:10:43;;;;;;;12.13;5.32;;;;;;;;;;5045199;28;20295;-80
2023/11/15 12:13:17;;;;;;;11.18;4.75;;;;;;;;;;5026971;28;20055;-75
2023/11/15 12:15:50;;;;;;;17.52;5.57;;;;;;;;;;5044135;28;20056;-75
2023/11/15 12:18:21;;;;;;;11.35;4.88;;;;;;;;;;5043615;28;20041;-75
2023/11/15 12:20:52;;;;;;;11.82;5.72;;;;;;;;;;5043701;28;20049;-77
2023/11/15 12:23:23;;;;;;;10.77;5.00;;;;;;;;;;5043920;28;20064;-76
2023/11/15 12:25:53;;;;;;;9.88;4.43;;;;;;;;;;5042904;28;20068;-80
2023/11/15 12:28:25;;;;;;;9.70;4.85;;;;;;;;;;5043958;28;20040;-82
2023/11/15 12:30:58;;;;;;;12.40;5.43;;;;;;;;;;5044878;28;20128;-82
2023/11/15 12:33:33;;;;;;;13.13;4.70;;;;;;;;;;5044174;28;20060;-79
2023/11/15 12:36:06;;;;;;;10.63;4.72;;;;;;;;;;5043560;28;20412;-81
2023/11/15 12:38:53;;;;;;;10.02;4.32;;;;;;;;;;5043537;28;20063;-79
2023/11/15 12:41:26;;;;;;;8.60;4.60;;;;;;;;;;5044278;28;20060;-78
2023/11/15 12:44:11;;;;;;;8.23;3.90;;;;;;;;;;5044664;28;20053;-79
2023/11/15 12:46:44;;;;;;;12.45;4.43;;;;;;;;;;5042409;28;20064;-78
2023/11/15 12:49:14;;;;;;;10.63;4.80;;;;;;;;;;5044232;28;20060;-79
2023/11/15 12:51:47;;;;;;;7.93;4.38;;;;;;;;;;5043006;28;20060;-80
2023/11/15 12:54:18;;;;;;;10.43;4.53;;;;;;;;;;5044396;28;20056;-78
2023/11/15 12:57:03;;;;;;;9.43;4.32;;;;;;;;;;5044026;28;20052;-78
2023/11/15 12:59:38;;;;;;;13.45;5.90;;;;;;;;;;5043202;28;20057;-80
2023/11/15 13:02:11;;;;;;;17.13;5.22;;;;;;;;;;5042429;28;20045;-80
2023/11/15 13:04:50;;;;;;;12.07;4.93;;;;;;;;;;5043281;28;20052;-78
2023/11/15 13:07:21;;;;;;;14.45;5.43;;;;;;;;;;5043289;28;20045;-78
2023/11/15 13:09:52;;;;;;;9.63;4.70;;;;;;;;;;5042534;28;20763;-79
2023/11/15 13:12:25;;;;;;;14.80;4.65;;;;;;;;;;5043747;28;20060;-78
2023/11/15 13:14:56;;;;;;;17.15;5.45;;;;;;;;;;5043096;28;20052;-80
2023/11/15 13:17:27;;;;;;;11.07;4.70;;;;;;;;;;5043603;28;20052;-78
2023/11/15 13:19:57;;;;;;;12.30;4.85;;;;;;;;;;5043283;28;20045;-81
2023/11/15 13:22:34;;;;;;;11.02;4.75;;;;;;;;;;5041650;28;20078;-81
2023/11/15 13:25:08;;;;;;;9.75;4.70;;;;;;;;;;5042677;28;20056;-78
2023/11/15 13:27:38;;;;;;;12.45;5.20;;;;;;;;;;5043546;28;20825;-75
2023/11/15 13:30:09;;;;;;;11.00;5.13;;;;;;;;;;5043654;28;20048;-77
2023/11/15 13:32:40;;;;;;;18.98;8.70;;;;;;;;;;5042397;28;20500;-77
2023/11/15 13:35:12;;;;;;;29.85;14.13;;;;;;;;;;5042834;28;20049;-76
2023/11/15 13:37:42;;;;;;;28.05;13.32;;;;;;;;;;5042352;28;20427;-76
2023/11/15 13:40:18;;;;;;;19.05;9.80;;;;;;;;;;5042235;28;20059;-77
2023/11/15 13:42:49;;;;;;;21.40;8.68;;;;;;;;;;5043296;28;20047;-76
2023/11/15 13:45:21;;;;;;;15.32;8.13;;;;;;;;;;5042386;28;20430;-77
2023/11/15 13:47:55;;;;;;;13.65;7.40;;;;;;;;;;5042270;28;20068;-76
2023/11/15 13:50:26;;;;;;;19.75;8.07;;;;;;;;;;5042435;28;20080;-76
2023/11/15 13:52:56;;;;;;;19.08;6.97;;;;;;;;;;5042179;28;20078;-75
2023/11/15 13:55:27;;;;;;;13.60;5.32;;;;;;;;;;5042432;28;20049;-76
2023/11/15 13:57:58;;;;;;;13.65;4.47;;;;;;;;;;5042819;28;20060;-76
2023/11/15 14:00:33;;;;;;;9.98;4.78;;;;;;;;;;5042383;28;20055;-76
2023/11/15 14:03:09;;;;;;;10.65;4.00;;;;;;;;;;5042573;28;20045;-78
2023/11/15 14:05:41;;;;;;;12.35;4.70;;;;;;;;;;5039968;28;20057;-77
2023/11/15 14:08:13;;;;;;;25.10;6.97;;;;;;;;;;5039772;28;20052;-76
2023/11/15 14:10:44;;;;;;;10.70;5.30;;;;;;;;;;5038175;28;20057;-77
2023/11/15 14:13:14;;;;;;;9.43;3.95;;;;;;;;;;5039958;28;20423;-77
2023/11/15 14:15:47;;;;;;;9.63;4.40;;;;;;;;;;5038858;28;20056;-77
2023/11/15 14:18:18;;;;;;;9.38;3.92;;;;;;;;;;5039710;28;20504;-77
2023/11/15 14:20:52;;;;;;;27.17;5.20;;;;;;;;;;5039628;28;20117;-77
2023/11/15 14:23:22;;;;;;;9.23;4.78;;;;;;;;;;5038993;28;20053;-77
2023/11/15 14:25:53;;;;;;;9.10;4.75;;;;;;;;;;5039133;28;20048;-77
2023/11/15 14:28:24;;;;;;;15.85;4.97;;;;;;;;;;5039120;28;20587;-77
2023/11/15 14:30:55;;;;;;;9.40;3.75;;;;;;;;;;5039108;28;20052;-76
2023/11/15 14:33:26;;;;;;;8.02;3.38;;;;;;;;;;5038801;28;20052;-78
2023/11/15 14:35:56;;;;;;;6.20;3.75;;;;;;;;;;5038553;28;20060;-76
2023/11/15 14:38:27;;;;;;;5.40;3.10;;;;;;;;;;5039069;28;20120;-76
2023/11/15 14:41:00;;;;;;;6.78;3.42;;;;;;;;;;5038653;28;20579;-76
2023/11/15 14:43:32;;;;;;;7.05;2.92;;;;;;;;;;5040000;28;20521;-76
2023/11/15 14:46:02;;;;;;;7.60;3.38;;;;;;;;;;5040393;28;20053;-77
2023/11/15 14:48:33;;;;;;;6.93;3.15;;;;;;;;;;5040480;28;20068;-77
2023/11/15 14:51:03;;;;;;;8.02;3.65;;;;;;;;;;5040447;28;20530;-76
2023/11/15 14:53:51;;;;;;;10.57;3.33;;;;;;;;;;5040577;28;20419;-77
2023/11/15 14:56:27;;;;;;;7.90;4.35;;;;;;;;;;5039191;28;20433;-77
2023/11/15 14:58:59;;;;;;;7.03;3.38;;;;;;;;;;5039653;28;20060;-76
2023/11/15 15:01:29;;;;;;;5.63;3.47;;;;;;;;;;5039126;28;20068;-77
2023/11/15 15:04:00;;;;;;;9.20;3.63;;;;;;;;;;5040553;28;20522;-76